Time;durP1;ratioP1;P1;durP2;ratioP2;P2;SDS_P1;SDS_P2;PMS_P1;PMS_P2;Temp;Humidity;BMP_temperature;BMP_pressure;BME280_temperature;BME280_humidity;BME280_pressure;Samples;Min_cycle;Max_cycle;Signal;HPM_P1;HPM_P2
2023/05/10 00:01:09;;;;;;;11.07;3.78;;;13.60;1.00;;;;;;5034082;28;20210;-84
2023/05/10 00:03:36;;;;;;;8.85;4.00;;;13.50;1.00;;;;;;5033755;28;20210;-77
2023/05/10 00:06:02;;;;;;;17.77;4.47;;;13.40;1.00;;;;;;5033413;28;20259;-80
2023/05/10 00:08:29;;;;;;;14.02;4.80;;;13.40;1.00;;;;;;5033860;28;20235;-76
2023/05/10 00:10:58;;;;;;;14.07;4.32;;;13.30;1.00;;;;;;5033213;28;20261;-80
2023/05/10 00:13:25;;;;;;;7.85;3.85;;;13.30;1.00;;;;;;5033779;28;20243;-80
2023/05/10 00:15:51;;;;;;;16.73;5.32;;;13.30;1.00;;;;;;5033252;28;20650;-81
2023/05/10 00:18:18;;;;;;;10.73;3.90;;;13.30;1.00;;;;;;5033710;28;20234;-83
2023/05/10 00:20:46;;;;;;;11.32;4.50;;;13.30;1.00;;;;;;5033061;28;20702;-80
2023/05/10 00:23:13;;;;;;;15.13;4.32;;;13.30;1.00;;;;;;5033360;28;20204;-80
2023/05/10 00:25:39;;;;;;;17.75;4.03;;;13.20;1.00;;;;;;5033983;28;20231;-79
2023/05/10 00:28:08;;;;;;;15.27;4.50;;;13.20;1.00;;;;;;5033138;28;20211;-81
2023/05/10 00:30:35;;;;;;;11.38;4.40;;;13.20;1.00;;;;;;5032234;28;20267;-81
2023/05/10 00:33:02;;;;;;;15.40;4.90;;;13.20;1.00;;;;;;5032858;28;20644;-81
2023/05/10 00:35:29;;;;;;;15.32;5.25;;;13.30;1.00;;;;;;5033166;28;20230;-80
2023/05/10 00:37:56;;;;;;;11.68;4.65;;;13.30;1.00;;;;;;5032698;28;20238;-81
2023/05/10 00:40:23;;;;;;;17.50;5.60;;;13.20;1.00;;;;;;5033147;28;20269;-81
2023/05/10 00:42:50;;;;;;;14.48;4.82;;;13.20;1.00;;;;;;5032976;28;20242;-80
2023/05/10 00:45:18;;;;;;;11.90;4.05;;;13.20;1.00;;;;;;5032899;28;20250;-81
2023/05/10 00:47:45;;;;;;;11.40;4.97;;;13.10;1.00;;;;;;5032641;28;20203;-80
2023/05/10 00:50:12;;;;;;;17.92;6.00;;;13.20;1.00;;;;;;5032775;28;20226;-79
2023/05/10 00:52:39;;;;;;;11.63;5.57;;;13.20;1.00;;;;;;5032966;28;20628;-80
2023/05/10 00:55:08;;;;;;;14.23;5.60;;;13.20;1.00;;;;;;5032889;28;20251;-81
2023/05/10 00:57:35;;;;;;;16.80;6.95;;;13.20;1.00;;;;;;5032948;28;20239;-80
2023/05/10 01:00:03;;;;;;;17.42;6.15;;;13.20;1.00;;;;;;5032305;28;20243;-81
2023/05/10 01:02:31;;;;;;;14.07;6.32;;;13.20;1.00;;;;;;5032533;28;20208;-80
2023/05/10 01:04:59;;;;;;;11.68;5.07;;;13.20;1.00;;;;;;5032172;28;20246;-80
2023/05/10 01:07:25;;;;;;;17.42;4.93;;;13.20;1.00;;;;;;5032832;28;20239;-80
2023/05/10 01:09:52;;;;;;;14.30;5.18;;;13.20;1.00;;;;;;5032566;28;20726;-83
2023/05/10 01:12:19;;;;;;;16.23;4.78;;;13.20;1.00;;;;;;5033189;28;20239;-85
2023/05/10 01:14:46;;;;;;;19.75;5.88;;;13.20;1.00;;;;;;5033258;28;20231;-79
2023/05/10 01:17:14;;;;;;;13.93;5.72;;;13.30;1.00;;;;;;5032626;28;20698;-77
2023/05/10 01:19:42;;;;;;;11.93;4.57;;;13.30;1.00;;;;;;5032760;28;20207;-76
2023/05/10 01:22:30;;;;;;;10.55;4.95;;;13.40;1.00;;;;;;5032722;28;20246;-77
2023/05/10 01:25:24;;;;;;;9.45;4.63;;;13.20;1.00;;;;;;5031922;28;20207;-78
2023/05/10 01:28:18;;;;;;;13.30;4.82;;;13.30;1.00;;;;;;5031409;28;20235;-80
2023/05/10 01:31:14;;;;;;;8.27;4.22;;;13.30;1.00;;;;;;5031798;28;20282;-79
2023/05/10 01:33:47;;;;;;;17.35;5.78;;;13.20;1.00;;;;;;5030695;28;20203;-79
2023/05/10 01:36:25;;;;;;;15.52;5.07;;;13.20;1.00;;;;;;5031971;28;20227;-75
2023/05/10 01:39:01;;;;;;;12.50;3.60;;;13.10;1.00;;;;;;5031396;28;20675;-81
2023/05/10 01:41:37;;;;;;;10.60;4.00;;;13.00;1.00;;;;;;5031770;28;20207;-79
2023/05/10 01:44:13;;;;;;;12.18;3.75;;;13.00;1.00;;;;;;5031628;28;20275;-79
2023/05/10 01:46:41;;;;;;;13.32;3.78;;;13.00;1.00;;;;;;5032247;28;20645;-79
2023/05/10 01:49:11;;;;;;;13.02;4.43;;;13.00;1.00;;;;;;5031910;28;20578;-79
2023/05/10 01:51:42;;;;;;;19.80;4.43;;;12.90;1.00;;;;;;5031957;28;20599;-81
2023/05/10 01:54:12;;;;;;;7.25;3.25;;;12.80;1.00;;;;;;5032129;28;20239;-79
2023/05/10 01:56:41;;;;;;;8.30;3.97;;;12.90;1.00;;;;;;5031755;28;20635;-75
2023/05/10 01:59:14;;;;;;;9.65;3.42;;;12.90;1.00;;;;;;5031955;28;20573;-77
2023/05/10 02:01:42;;;;;;;14.52;3.15;;;12.90;1.00;;;;;;5031662;28;20211;-75
2023/05/10 02:04:12;;;;;;;10.32;3.75;;;12.90;1.00;;;;;;5031930;28;20341;-76
2023/05/10 02:06:41;;;;;;;11.88;4.20;;;13.00;1.00;;;;;;5031699;28;20641;-76
2023/05/10 02:09:10;;;;;;;9.15;3.70;;;13.00;1.00;;;;;;5031761;28;20231;-76
2023/05/10 02:11:39;;;;;;;10.48;3.15;;;13.00;1.00;;;;;;5031527;28;20235;-76
2023/05/10 02:14:10;;;;;;;12.05;3.85;;;13.00;1.00;;;;;;5031612;28;20226;-77
2023/05/10 02:16:39;;;;;;;15.93;3.85;;;13.10;1.00;;;;;;5031618;28;20285;-76
2023/05/10 02:19:08;;;;;;;15.32;6.00;;;13.00;1.00;;;;;;5031087;28;20239;-80
2023/05/10 02:21:38;;;;;;;15.82;6.43;;;13.10;1.00;;;;;;5031322;28;20208;-79
2023/05/10 02:24:06;;;;;;;12.32;6.10;;;13.10;99.90;;;;;;5030872;28;20236;-78
2023/05/10 02:26:35;;;;;;;19.83;7.07;;;13.00;1.00;;;;;;5030937;28;20230;-79
2023/05/10 02:29:04;;;;;;;12.32;4.72;;;13.00;1.00;;;;;;5030833;28;20686;-79
2023/05/10 02:31:32;;;;;;;15.02;4.75;;;13.00;1.00;;;;;;5031161;28;20241;-80
2023/05/10 02:34:00;;;;;;;11.65;3.60;;;12.80;99.90;;;;;;5030721;28;20239;-79
2023/05/10 02:36:28;;;;;;;7.38;3.25;;;12.80;99.90;;;;;;5030954;28;20638;-80
2023/05/10 02:38:57;;;;;;;12.63;4.53;;;12.90;1.00;;;;;;5030708;28;20230;-80
2023/05/10 02:41:26;;;;;;;10.27;3.75;;;13.00;1.00;;;;;;5030938;28;20641;-79
2023/05/10 02:43:56;;;;;;;10.60;2.97;;;13.00;99.90;;;;;;5030800;28;20205;-78
2023/05/10 02:46:24;;;;;;;8.25;3.75;;;12.90;99.90;;;;;;5031042;28;20242;-81
2023/05/10 02:48:51;;;;;;;20.27;5.38;;;13.00;99.90;;;;;;5030662;28;20207;-79
2023/05/10 02:51:20;;;;;;;12.55;3.72;;;13.10;1.00;;;;;;5030760;28;20271;-82
2023/05/10 02:53:50;;;;;;;9.88;3.90;;;13.00;99.90;;;;;;5029788;28;20638;-81
2023/05/10 02:56:25;;;;;;;19.92;4.07;;;13.10;1.00;;;;;;5031086;28;20199;-80
2023/05/10 02:58:52;;;;;;;11.90;4.07;;;13.10;1.00;;;;;;5030699;28;20234;-81
2023/05/10 03:01:19;;;;;;;15.95;5.80;;;13.10;1.00;;;;;;5030692;28;20250;-78
2023/05/10 03:03:46;;;;;;;13.07;4.55;;;13.00;1.00;;;;;;5030489;28;20231;-90
2023/05/10 03:06:13;;;;;;;11.20;3.88;;;12.90;1.00;;;;;;5031423;28;20239;-86
2023/05/10 03:08:40;;;;;;;13.00;4.13;;;12.90;1.00;;;;;;5032127;28;20205;-92
2023/05/10 03:11:24;;;;;;;17.45;4.32;;;12.80;1.00;;;;;;5032647;28;20269;-89
2023/05/10 03:14:05;;;;;;;7.35;3.05;;;12.70;1.00;;;;;;5056247;28;20202;-82
2023/05/10 03:16:42;;;;;;;13.07;4.00;;;12.70;1.00;;;;;;5052817;28;20230;-88
2023/05/10 03:19:25;;;;;;;12.88;2.75;;;12.60;1.00;;;;;;5045117;28;20721;-85
2023/05/10 03:21:57;;;;;;;9.18;2.30;;;12.50;1.00;;;;;;5031327;28;20634;-89
2023/05/10 03:24:28;;;;;;;7.60;3.13;;;12.40;1.00;;;;;;5031007;28;20238;-90
2023/05/10 03:26:58;;;;;;;9.90;2.60;;;12.40;1.00;;;;;;5030875;28;20271;-89
2023/05/10 03:29:27;;;;;;;6.55;2.38;;;12.40;1.00;;;;;;5031608;28;20235;-91
2023/05/10 03:31:54;;;;;;;8.05;2.50;;;12.30;99.90;;;;;;5041351;28;20234;-84
2023/05/10 03:34:24;;;;;;;13.98;3.70;;;12.30;1.00;;;;;;5050599;28;20238;-82
2023/05/10 03:36:51;;;;;;;9.93;3.05;;;12.30;99.90;;;;;;5050801;28;20230;-91
2023/05/10 03:39:19;;;;;;;8.20;2.40;;;12.30;99.90;;;;;;5050904;28;20691;-85
2023/05/10 03:41:46;;;;;;;9.73;2.72;;;12.30;99.90;;;;;;5050696;28;20242;-87
2023/05/10 03:44:14;;;;;;;7.35;2.55;;;12.30;99.90;;;;;;5051028;28;20633;-86
2023/05/10 03:46:41;;;;;;;10.52;3.35;;;12.30;1.00;;;;;;5051151;28;20238;-83
2023/05/10 03:49:08;;;;;;;7.25;3.20;;;12.40;1.00;;;;;;5051638;28;20207;-81
2023/05/10 03:51:35;;;;;;;9.32;2.28;;;12.40;1.00;;;;;;5050937;28;20277;-86
2023/05/10 03:54:01;;;;;;;7.97;2.35;;;12.40;1.00;;;;;;5050950;28;20239;-83
2023/05/10 03:56:31;;;;;;;6.47;3.00;;;12.40;1.00;;;;;;5051038;28;20234;-84
2023/05/10 03:58:58;;;;;;;4.95;3.72;;;12.40;1.00;;;;;;5050358;28;20687;-83
2023/05/10 04:01:26;;;;;;;6.75;2.30;;;12.30;1.00;;;;;;5050658;28;20319;-84
2023/05/10 04:03:53;;;;;;;5.85;1.83;;;12.30;1.00;;;;;;5050418;28;20235;-88
2023/05/10 04:06:20;;;;;;;8.45;2.88;;;12.30;1.00;;;;;;5053732;28;20213;-80
2023/05/10 04:08:47;;;;;;;11.50;3.20;;;12.30;1.00;;;;;;5039611;28;20250;-81
2023/05/10 04:11:14;;;;;;;15.40;3.97;;;12.20;1.00;;;;;;5034130;28;20275;-84
2023/05/10 04:13:42;;;;;;;13.70;3.38;;;12.20;1.00;;;;;;5034314;28;20199;-73
2023/05/10 04:16:09;;;;;;;6.50;2.25;;;12.30;1.00;;;;;;5034542;28;20282;-81
2023/05/10 04:18:39;;;;;;;9.23;3.15;;;12.20;1.00;;;;;;5034451;28;20200;-82
2023/05/10 04:21:13;;;;;;;14.48;4.22;;;12.30;1.00;;;;;;5033796;28;20214;-91
2023/05/10 04:23:40;;;;;;;10.00;3.28;;;12.30;1.00;;;;;;5034559;28;20200;-87
2023/05/10 04:26:07;;;;;;;7.65;2.10;;;12.30;1.00;;;;;;5033770;28;20208;-86
2023/05/10 04:28:35;;;;;;;9.80;3.85;;;12.30;1.00;;;;;;5034054;28;20253;-83
2023/05/10 04:31:03;;;;;;;13.75;3.08;;;12.30;1.00;;;;;;5033066;28;20293;-84
2023/05/10 04:33:30;;;;;;;11.77;3.92;;;12.30;1.00;;;;;;5033931;28;20231;-81
2023/05/10 04:35:59;;;;;;;13.68;3.10;;;12.30;1.00;;;;;;5032956;28;20707;-81
2023/05/10 04:38:26;;;;;;;9.55;3.08;;;12.30;1.00;;;;;;5033704;28;20695;-83
2023/05/10 04:40:53;;;;;;;9.98;3.13;;;12.20;1.00;;;;;;5033336;28;20678;-84
2023/05/10 04:43:20;;;;;;;13.10;4.30;;;12.20;1.00;;;;;;5033715;28;20242;-83
2023/05/10 04:45:47;;;;;;;13.13;4.05;;;12.30;1.00;;;;;;5033310;28;20199;-82
2023/05/10 04:48:14;;;;;;;13.27;3.50;;;12.30;1.00;;;;;;5033795;28;20293;-84
2023/05/10 04:50:41;;;;;;;7.22;3.33;;;12.30;1.00;;;;;;5036634;28;20717;-79
2023/05/10 04:53:10;;;;;;;9.68;2.92;;;12.40;1.00;;;;;;5053705;28;20634;-83
2023/05/10 04:55:37;;;;;;;7.90;3.13;;;12.40;1.00;;;;;;5053747;28;20239;-84
2023/05/10 04:58:04;;;;;;;15.73;4.10;;;12.40;1.00;;;;;;5052697;28;20234;-83
2023/05/10 05:00:31;;;;;;;11.20;3.65;;;12.50;1.00;;;;;;5052999;28;20786;-87
2023/05/10 05:02:58;;;;;;;10.30;3.15;;;12.60;1.00;;;;;;5052303;28;20709;-86
2023/05/10 05:05:25;;;;;;;7.82;2.80;;;12.50;1.00;;;;;;5053279;28;20203;-85
2023/05/10 05:07:52;;;;;;;10.65;3.70;;;12.40;1.00;;;;;;5052210;28;20281;-80
2023/05/10 05:10:20;;;;;;;9.85;4.28;;;12.30;1.00;;;;;;5052521;28;20257;-81
2023/05/10 05:12:47;;;;;;;14.40;3.80;;;12.30;1.00;;;;;;5051733;28;20238;-81
2023/05/10 05:15:16;;;;;;;14.20;3.25;;;12.20;1.00;;;;;;5052515;28;20261;-81
2023/05/10 05:17:43;;;;;;;10.30;3.75;;;12.20;1.00;;;;;;5052263;28;20689;-74
2023/05/10 05:20:11;;;;;;;9.18;2.75;;;12.20;1.00;;;;;;5052478;28;20246;-84
2023/05/10 05:22:38;;;;;;;9.77;3.40;;;12.30;1.00;;;;;;5052869;28;20207;-82
2023/05/10 05:25:06;;;;;;;9.90;4.32;;;12.40;1.00;;;;;;5051924;28;20620;-82
2023/05/10 05:27:34;;;;;;;12.32;3.65;;;12.30;1.00;;;;;;5052409;28;20238;-79
2023/05/10 05:30:02;;;;;;;11.88;3.35;;;12.30;1.00;;;;;;5052258;28;20260;-77
2023/05/10 05:32:29;;;;;;;15.80;3.08;;;12.20;1.00;;;;;;5052427;28;20242;-85
2023/05/10 05:34:55;;;;;;;9.98;4.00;;;12.20;1.00;;;;;;5051897;28;20354;-81
2023/05/10 05:37:24;;;;;;;11.00;4.05;;;12.20;1.00;;;;;;5052346;28;20238;-84
2023/05/10 05:39:51;;;;;;;8.57;2.90;;;12.20;1.00;;;;;;5051738;28;20674;-75
2023/05/10 05:42:18;;;;;;;10.00;3.35;;;12.30;1.00;;;;;;5051875;28;20246;-76
2023/05/10 05:44:46;;;;;;;11.77;4.25;;;12.40;1.00;;;;;;5051603;28;20202;-77
2023/05/10 05:47:13;;;;;;;6.90;2.85;;;12.40;1.00;;;;;;5051875;28;20203;-77
2023/05/10 05:49:40;;;;;;;11.43;3.50;;;12.30;1.00;;;;;;5052039;28;20234;-79
2023/05/10 05:52:07;;;;;;;8.05;2.47;;;12.30;1.00;;;;;;5051654;28;20280;-77
2023/05/10 05:54:34;;;;;;;9.73;4.18;;;12.60;1.00;;;;;;5051647;28;20226;-78
2023/05/10 05:57:02;;;;;;;9.48;3.28;;;12.70;1.00;;;;;;5051760;28;20215;-80
2023/05/10 05:59:29;;;;;;;13.68;4.75;;;12.80;1.00;;;;;;5051810;28;20634;-80
2023/05/10 06:01:57;;;;;;;11.18;3.03;;;12.70;1.00;;;;;;5050209;28;20218;-78
2023/05/10 06:04:24;;;;;;;7.00;3.25;;;12.60;1.00;;;;;;5049426;28;20235;-76
2023/05/10 06:06:51;;;;;;;14.10;3.67;;;12.60;1.00;;;;;;5051008;28;20219;-80
2023/05/10 06:09:18;;;;;;;13.73;3.45;;;12.60;99.90;;;;;;5021397;28;20635;-81
2023/05/10 06:11:45;;;;;;;12.23;2.95;;;12.60;1.00;;;;;;5047017;28;20278;-80
2023/05/10 06:14:12;;;;;;;8.23;3.80;;;12.50;1.00;;;;;;5048338;28;20207;-75
2023/05/10 06:16:39;;;;;;;9.63;3.67;;;12.50;1.00;;;;;;5031579;28;20638;-75
2023/05/10 06:19:07;;;;;;;10.32;3.80;;;12.60;1.00;;;;;;5030994;28;20199;-73
2023/05/10 06:21:34;;;;;;;14.73;3.33;;;12.60;1.00;;;;;;5031039;28;20234;-74
2023/05/10 06:24:01;;;;;;;14.90;3.67;;;12.60;1.00;;;;;;5030734;28;20701;-74
2023/05/10 06:26:28;;;;;;;8.30;2.55;;;12.70;1.00;;;;;;5031242;28;20253;-74
2023/05/10 06:28:54;;;;;;;10.55;3.50;;;12.70;1.00;;;;;;5030143;28;20239;-76
2023/05/10 06:31:21;;;;;;;5.20;2.78;;;12.70;1.00;;;;;;5036461;28;20772;-75
2023/05/10 06:33:48;;;;;;;8.55;2.60;;;12.70;99.90;;;;;;5046603;28;20211;-76
2023/05/10 06:36:16;;;;;;;6.75;3.20;;;12.70;99.90;;;;;;5044124;28;20652;-74
2023/05/10 06:38:43;;;;;;;10.35;3.83;;;12.70;1.00;;;;;;5049225;28;20272;-75
2023/05/10 06:41:10;;;;;;;8.05;3.85;;;12.80;1.00;;;;;;5035492;28;20242;-74
2023/05/10 06:43:39;;;;;;;12.65;4.13;;;13.10;1.00;;;;;;5051217;28;20210;-73
2023/05/10 06:46:07;;;;;;;11.65;4.10;;;13.10;99.90;;;;;;5050352;28;20200;-73
2023/05/10 06:48:34;;;;;;;14.02;4.40;;;13.10;99.90;;;;;;5050708;28;20210;-75
2023/05/10 06:51:01;;;;;;;8.40;3.65;;;13.00;99.90;;;;;;5043036;28;20620;-81
2023/05/10 06:53:30;;;;;;;9.70;3.70;;;12.90;99.90;;;;;;5050060;28;20207;-73
2023/05/10 06:55:57;;;;;;;10.65;2.45;;;13.00;99.90;;;;;;5049120;28;20207;-73
2023/05/10 06:58:24;;;;;;;15.93;4.65;;;13.00;99.90;;;;;;5046843;28;20246;-75
2023/05/10 07:00:50;;;;;;;9.35;3.58;;;13.20;99.90;;;;;;5049837;28;20221;-74
2023/05/10 07:03:17;;;;;;;9.07;2.22;;;13.30;99.90;;;;;;5048891;28;20242;-74
2023/05/10 07:05:44;;;;;;;10.45;3.50;;;13.40;1.00;;;;;;5049765;28;20245;-75
2023/05/10 07:08:11;;;;;;;11.23;3.97;;;13.60;99.90;;;;;;5048572;28;20235;-75
2023/05/10 07:10:39;;;;;;;11.95;4.07;;;13.70;99.90;;;;;;5050425;28;20242;-75
2023/05/10 07:13:06;;;;;;;12.60;3.30;;;13.90;99.90;;;;;;5050046;28;20700;-75
2023/05/10 07:15:33;;;;;;;13.05;3.03;;;13.70;99.90;;;;;;5050117;28;20234;-74
2023/05/10 07:18:00;;;;;;;11.23;3.58;;;13.90;99.90;;;;;;5044972;28;20243;-74
2023/05/10 07:20:27;;;;;;;14.05;4.30;;;14.00;99.90;;;;;;5039344;28;20730;-73
2023/05/10 07:22:54;;;;;;;16.83;4.25;;;14.20;99.90;;;;;;5030178;28;20269;-76
2023/05/10 07:25:21;;;;;;;14.23;4.07;;;14.10;99.90;;;;;;5048046;28;20713;-74
2023/05/10 07:27:49;;;;;;;12.75;3.72;;;14.10;99.90;;;;;;5049950;28;20246;-74
2023/05/10 07:30:16;;;;;;;14.00;3.95;;;14.20;99.90;;;;;;5049870;28;20666;-75
2023/05/10 07:32:43;;;;;;;12.40;3.40;;;14.20;99.90;;;;;;5042649;28;20274;-74
2023/05/10 07:35:10;;;;;;;8.02;3.30;;;14.10;99.90;;;;;;5043193;28;20242;-77
2023/05/10 07:37:37;;;;;;;18.00;4.30;;;14.10;99.90;;;;;;5050525;28;20234;-75
2023/05/10 07:40:04;;;;;;;7.57;2.80;;;14.00;99.90;;;;;;5052842;28;20238;-75
2023/05/10 07:42:31;;;;;;;9.88;3.75;;;14.10;99.90;;;;;;5054122;28;20253;-75
2023/05/10 07:44:59;;;;;;;14.85;3.60;;;14.30;99.90;;;;;;5052929;28;20238;-74
2023/05/10 07:47:26;;;;;;;7.20;2.80;;;14.20;99.90;;;;;;5054130;28;20241;-76
2023/05/10 07:49:53;;;;;;;9.32;3.35;;;14.50;99.90;;;;;;5053655;28;20260;-78
2023/05/10 07:52:20;;;;;;;9.68;3.22;;;14.40;99.90;;;;;;5053504;28;20281;-76
2023/05/10 07:54:47;;;;;;;9.30;2.97;;;14.40;99.90;;;;;;5053395;28;20620;-75
2023/05/10 07:57:17;;;;;;;11.90;4.13;;;14.70;99.90;;;;;;5053439;28;20606;-74
2023/05/10 07:59:45;;;;;;;6.68;2.97;;;14.80;99.90;;;;;;5053738;28;20290;-75
2023/05/10 08:02:13;;;;;;;10.73;3.42;;;15.10;99.90;;;;;;5053409;28;20207;-75
2023/05/10 08:04:40;;;;;;;9.85;4.22;;;15.00;99.90;;;;;;5054094;28;20230;-74
2023/05/10 08:07:07;;;;;;;8.90;3.75;;;15.40;99.90;;;;;;5053627;28;20294;-73
2023/05/10 08:09:34;;;;;;;12.98;4.32;;;15.10;99.90;;;;;;5051798;28;20299;-74
2023/05/10 08:12:01;;;;;;;12.27;3.97;;;14.80;99.90;;;;;;5052735;28;20710;-73
2023/05/10 08:14:29;;;;;;;7.90;2.70;;;15.10;99.90;;;;;;5053567;28;20290;-73
2023/05/10 08:16:56;;;;;;;10.55;3.60;;;15.60;99.90;;;;;;5052899;28;20226;-73
2023/05/10 08:19:25;;;;;;;9.05;2.97;;;15.80;99.90;;;;;;5053397;28;20213;-74
2023/05/10 08:21:53;;;;;;;7.03;3.00;;;15.70;99.90;;;;;;5053182;28;20238;-75
2023/05/10 08:24:20;;;;;;;9.45;3.22;;;15.70;99.90;;;;;;5053440;28;20234;-74
2023/05/10 08:26:47;;;;;;;9.23;2.78;;;16.00;99.90;;;;;;5052854;28;20653;-73
2023/05/10 08:29:14;;;;;;;8.30;3.28;;;15.80;99.90;;;;;;5053320;28;20199;-73
2023/05/10 08:31:41;;;;;;;7.03;2.60;;;15.90;99.90;;;;;;5053506;28;20273;-74
2023/05/10 08:34:08;;;;;;;13.18;2.50;;;16.20;99.90;;;;;;5053561;28;20203;-74
2023/05/10 08:36:36;;;;;;;8.57;2.97;;;16.40;99.90;;;;;;5053271;28;20637;-73
2023/05/10 08:39:03;;;;;;;12.48;3.55;;;16.20;99.90;;;;;;5052594;28;20215;-74
2023/05/10 08:41:34;;;;;;;14.07;4.53;;;16.20;99.90;;;;;;5053244;28;20242;-73
2023/05/10 08:44:05;;;;;;;12.75;2.85;;;15.90;99.90;;;;;;5047228;28;20738;-74
2023/05/10 08:46:34;;;;;;;5.68;2.47;;;16.30;99.90;;;;;;5032971;28;20211;-74
2023/05/10 08:49:05;;;;;;;9.25;2.95;;;16.00;99.90;;;;;;5040612;28;20207;-73
2023/05/10 08:51:41;;;;;;;9.20;2.72;;;15.50;99.90;;;;;;5052070;28;20238;-74
2023/05/10 08:54:09;;;;;;;7.40;2.33;;;15.00;99.90;;;;;;5053295;28;20301;-75
2023/05/10 08:56:37;;;;;;;6.00;2.33;;;15.10;99.90;;;;;;5052835;28;20199;-74
2023/05/10 08:59:03;;;;;;;7.07;2.40;;;16.00;99.90;;;;;;5052347;28;20218;-73
2023/05/10 09:01:32;;;;;;;6.97;3.13;;;16.70;99.90;;;;;;5052704;28;20234;-75
2023/05/10 09:03:59;;;;;;;3.65;1.67;;;17.30;99.90;;;;;;5052140;28;20238;-74
2023/05/10 09:06:26;;;;;;;5.03;2.53;;;17.20;99.90;;;;;;5053121;28;20681;-73
2023/05/10 09:08:54;;;;;;;6.15;2.10;;;16.60;99.90;;;;;;5052384;28;20238;-75
2023/05/10 09:11:22;;;;;;;5.60;2.05;;;17.20;99.90;;;;;;5052256;28;20242;-74
2023/05/10 09:13:50;;;;;;;6.57;2.67;;;19.30;99.90;;;;;;5052364;28;20324;-74
2023/05/10 09:16:17;;;;;;;11.75;2.72;;;21.50;99.90;;;;;;5052174;28;20234;-74
2023/05/10 09:18:44;;;;;;;10.40;2.95;;;23.90;99.90;;;;;;5051889;28;20239;-74
2023/05/10 09:21:11;;;;;;;7.53;2.53;;;20.00;99.90;;;;;;5052897;28;20238;-74
2023/05/10 09:23:38;;;;;;;5.10;2.22;;;19.60;99.90;;;;;;5052604;28;20264;-74
2023/05/10 09:26:05;;;;;;;6.80;1.85;;;21.20;99.90;;;;;;5051615;28;20697;-74
2023/05/10 09:28:34;;;;;;;5.35;2.03;;;21.30;99.90;;;;;;5052187;28;20304;-75
2023/05/10 09:31:01;;;;;;;4.65;1.83;;;20.20;1.00;;;;;;5051703;28;20302;-75
2023/05/10 09:33:28;;;;;;;6.60;1.83;;;17.70;99.90;;;;;;5052047;28;20269;-74
2023/05/10 09:35:55;;;;;;;7.15;2.88;;;17.60;99.90;;;;;;5051771;28;20238;-74
2023/05/10 09:38:22;;;;;;;7.32;1.88;;;19.10;99.90;;;;;;5052145;28;20242;-73
2023/05/10 09:40:54;;;;;;;7.07;1.95;;;21.10;99.90;;;;;;5045103;28;20573;-75
2023/05/10 09:43:21;;;;;;;7.65;2.63;;;21.70;99.90;;;;;;5032823;28;20222;-76
2023/05/10 09:45:50;;;;;;;4.32;1.83;;;20.00;99.90;;;;;;5037070;28;20238;-74
2023/05/10 09:48:17;;;;;;;12.48;2.50;;;19.30;99.90;;;;;;5052052;28;20222;-75
2023/05/10 09:50:44;;;;;;;6.53;2.25;;;19.20;99.90;;;;;;5051106;28;20241;-75
2023/05/10 09:53:16;;;;;;;11.10;2.83;;;21.00;99.90;;;;;;5052118;28;20317;-76
2023/05/10 09:55:49;;;;;;;4.13;1.45;;;22.80;99.90;;;;;;5051225;28;20584;-75
2023/05/10 09:58:16;;;;;;;7.63;2.03;;;21.60;99.90;;;;;;5051529;28;20199;-75
2023/05/10 10:00:44;;;;;;;6.88;2.05;;;20.60;99.90;;;;;;5050442;28;20202;-74
2023/05/10 10:03:15;;;;;;;6.50;2.70;;;21.10;99.90;;;;;;5038291;28;20747;-75
2023/05/10 10:05:43;;;;;;;4.05;1.95;;;22.30;99.90;;;;;;5051379;28;20202;-75
2023/05/10 10:08:11;;;;;;;5.10;2.25;;;;;;;;;;5039359;28;20203;-74
2023/05/10 10:10:40;;;;;;;7.05;2.58;;;25.50;99.90;;;;;;5031579;28;20251;-75
2023/05/10 10:13:07;;;;;;;3.88;2.05;;;24.70;99.90;;;;;;5031606;28;20234;-74
2023/05/10 10:15:35;;;;;;;5.38;2.03;;;27.10;99.90;;;;;;5031406;28;20243;-73
2023/05/10 10:18:03;;;;;;;5.88;2.25;;;27.80;99.90;;;;;;5030912;28;20679;-75
2023/05/10 10:20:32;;;;;;;2.88;1.42;;;29.00;99.90;;;;;;5044558;28;20321;-74
2023/05/10 10:22:59;;;;;;;5.90;1.98;;;28.30;99.90;;;;;;5050537;28;20238;-74
2023/05/10 10:25:26;;;;;;;3.80;2.03;;;27.80;99.90;;;;;;5050744;28;20203;-74
2023/05/10 10:28:07;;;;;;;5.82;2.15;;;28.00;99.90;;;;;;5030935;28;20274;-75
2023/05/10 10:30:41;;;;;;;3.88;1.90;;;28.00;99.90;;;;;;5030852;28;20249;-74
2023/05/10 10:33:34;;;;;;;4.68;1.77;;;25.90;99.90;;;;;;5029409;28;20338;-74
2023/05/10 10:36:04;;;;;;;6.53;1.80;;;21.70;99.90;;;;;;5030118;28;20944;-76
2023/05/10 10:39:00;;;;;;;2.60;1.48;;;20.00;99.90;;;;;;5050143;28;20757;-75
2023/05/10 10:41:32;;;;;;;4.28;2.33;;;19.20;99.90;;;;;;5042131;28;20298;-78
2023/05/10 10:44:24;;;;;;;2.95;1.73;;;19.10;99.90;;;;;;5057569;28;20237;-77
2023/05/10 10:47:02;;;;;;;5.63;2.10;;;18.70;99.90;;;;;;5054120;28;20203;-76
2023/05/10 10:49:31;;;;;;;6.75;1.85;;;18.90;99.90;;;;;;5066955;28;20209;-73
2023/05/10 10:52:23;;;;;;;5.20;2.00;;;19.10;99.90;;;;;;5051205;28;20588;-76
2023/05/10 10:54:55;;;;;;;7.10;2.28;;;19.40;99.90;;;;;;5036866;28;20688;-77
2023/05/10 10:57:26;;;;;;;5.93;1.95;;;19.00;99.90;;;;;;5048784;28;20205;-77
2023/05/10 10:59:55;;;;;;;5.57;1.83;;;18.30;99.90;;;;;;5044487;28;20230;-75
2023/05/10 11:02:45;;;;;;;6.68;1.80;;;17.10;99.90;;;;;;5049139;28;20288;-80
2023/05/10 11:05:43;;;;;;;5.53;1.83;;;16.90;99.90;;;;;;5042982;28;20249;-82
2023/05/10 11:08:17;;;;;;;7.75;2.28;;;16.80;99.90;;;;;;4994349;28;20248;-75
2023/05/10 11:11:06;;;;;;;6.75;2.33;;;16.80;99.90;;;;;;5038679;28;20297;-74
2023/05/10 11:13:34;;;;;;;9.38;2.40;;;16.60;99.90;;;;;;5050787;28;20234;-75
2023/05/10 11:16:15;;;;;;;7.82;2.13;;;16.70;99.90;;;;;;5054064;28;20217;-77
2023/05/10 11:18:52;;;;;;;9.43;3.08;;;16.50;99.90;;;;;;5054444;28;20234;-74
2023/05/10 11:21:19;;;;;;;3.60;1.88;;;15.90;99.90;;;;;;5054268;28;20206;-73
2023/05/10 11:23:55;;;;;;;7.95;2.50;;;15.50;99.90;;;;;;5052656;28;20237;-75
2023/05/10 11:26:25;;;;;;;15.40;8.43;;;15.10;99.90;;;;;;5053433;28;20202;-74
2023/05/10 11:28:54;;;;;;;6.00;2.58;;;14.90;99.90;;;;;;5052050;28;20207;-72
2023/05/10 11:31:22;;;;;;;5.78;3.58;;;14.70;99.90;;;;;;5054194;28;20217;-74
2023/05/10 11:33:52;;;;;;;10.30;2.83;;;14.80;99.90;;;;;;5053804;28;20730;-73
2023/05/10 11:36:21;;;;;;;3.67;2.05;;;14.70;99.90;;;;;;5054092;28;20285;-77
2023/05/10 11:38:50;;;;;;;4.68;2.38;;;14.80;99.90;;;;;;5053903;28;20246;-75
2023/05/10 11:41:21;;;;;;;4.38;1.90;;;15.10;99.90;;;;;;5054148;28;20199;-76
2023/05/10 11:43:50;;;;;;;3.03;1.40;;;15.20;99.90;;;;;;5053836;28;20210;-76
2023/05/10 11:46:20;;;;;;;5.07;1.77;;;15.40;99.90;;;;;;5054167;28;20624;-75
2023/05/10 11:48:50;;;;;;;6.47;1.67;;;15.90;99.90;;;;;;5053753;28;20203;-73
2023/05/10 11:51:20;;;;;;;1.95;1.20;;;16.50;99.90;;;;;;5053704;28;20238;-74
2023/05/10 11:53:47;;;;;;;4.30;1.60;;;17.00;99.90;;;;;;5053502;28;20344;-73
2023/05/10 11:56:15;;;;;;;3.80;1.50;;;17.00;99.90;;;;;;5054006;28;20238;-74
2023/05/10 11:58:42;;;;;;;3.13;1.52;;;17.30;99.90;;;;;;5053568;28;20558;-74
2023/05/10 12:01:10;;;;;;;3.38;1.02;;;17.60;99.90;;;;;;5048489;28;20245;-73
2023/05/10 12:03:38;;;;;;;3.80;1.48;;;17.50;99.90;;;;;;5038945;28;20594;-73
2023/05/10 12:06:05;;;;;;;5.03;1.70;;;17.60;99.90;;;;;;5034384;28;20246;-73
2023/05/10 12:08:32;;;;;;;3.22;1.20;;;17.60;99.90;;;;;;5050644;28;20564;-78
2023/05/10 12:11:06;;;;;;;3.80;1.60;;;18.20;99.90;;;;;;5051428;28;20242;-76
2023/05/10 12:13:40;;;;;;;2.60;1.40;;;18.30;99.90;;;;;;5052083;28;20323;-78
2023/05/10 12:16:14;;;;;;;1.95;1.25;;;18.10;99.90;;;;;;5051490;28;20218;-75
2023/05/10 12:18:42;;;;;;;11.27;1.80;;;18.00;99.90;;;;;;5051290;28;20206;-75
2023/05/10 12:21:11;;;;;;;7.30;1.23;;;17.70;99.90;;;;;;5051481;28;20203;-76
2023/05/10 12:23:38;;;;;;;6.90;1.45;;;17.30;99.90;;;;;;5053617;28;20222;-74
2023/05/10 12:26:06;;;;;;;2.40;1.20;;;17.00;99.90;;;;;;5050214;28;20306;-77
2023/05/10 12:28:35;;;;;;;6.00;2.22;;;17.10;99.90;;;;;;5052005;28;20245;-78
2023/05/10 12:31:03;;;;;;;5.57;1.98;;;17.20;99.90;;;;;;5051077;28;20234;-75
2023/05/10 12:33:38;;;;;;;8.00;2.00;;;17.10;99.90;;;;;;5034122;28;20262;-77
2023/05/10 12:36:06;;;;;;;3.95;1.40;;;17.50;99.90;;;;;;5050777;28;20210;-79
2023/05/10 12:38:35;;;;;;;5.65;1.92;;;17.80;99.90;;;;;;5049400;28;20199;-75
2023/05/10 12:41:03;;;;;;;6.72;2.10;;;17.80;99.90;;;;;;5050791;28;20206;-74
2023/05/10 12:43:30;;;;;;;6.68;1.55;;;18.20;99.90;;;;;;5051953;28;20203;-73
2023/05/10 12:45:59;;;;;;;5.28;1.25;;;19.00;99.90;;;;;;5047259;28;20696;-77
2023/05/10 12:48:28;;;;;;;4.50;1.27;;;19.10;99.90;;;;;;5051211;28;20289;-76
2023/05/10 12:50:55;;;;;;;4.40;0.93;;;18.70;99.90;;;;;;5051921;28;20250;-75
2023/05/10 12:53:22;;;;;;;1.88;1.10;;;;;;;;;;5051896;28;20241;-75
2023/05/10 12:55:49;;;;;;;3.10;1.25;;;19.90;99.90;;;;;;5051614;28;20249;-73
2023/05/10 12:58:16;;;;;;;2.10;0.93;;;19.60;99.90;;;;;;5051658;28;20246;-77